Terminal Aerodrome Forecast
Issued by NWS

Home | Current Version | Previous Version | Text Only | Print | Product List | Glossary On
Versions: 1 2 3 4 5 6 7 8 9 10 11 12 13 14 15 16 17 18
000
FTUS41 KCAR 172333
TAFPQI
TAF
KPQI 172333Z 1800/1824 17008KT P6SM BKN200
     FM180700 18008KT 3SM -SN OVC025
     FM180900 17007KT 1 1/2SM -SN OVC015
     FM181100 16006KT 3SM -SN OVC020
     FM181400 21004KT P6SM OVC015=

USA.gov is the U.S. government's official web portal to all federal, state and local government web resources and services.